Time;durP1;ratioP1;P1;durP2;ratioP2;P2;SDS_P1;SDS_P2;PMS_P1;PMS_P2;Temp;Humidity;BMP_temperature;BMP_pressure;BME280_temperature;BME280_humidity;BME280_pressure;Samples;Min_cycle;Max_cycle;Signal;HPM_P1;HPM_P2
2024/03/31 00:00:12;;;;;;;;;;;;;;;19.86;48.00;99298.09;2052510;28;6291;-68
2024/03/31 00:01:12;;;;;;;;;;;;;;;19.86;48.02;99291.63;2052026;28;2184;-68
2024/03/31 00:02:12;;;;;;;;;;;;;;;19.86;48.05;99291.63;2054246;28;1680;-68
2024/03/31 00:03:13;;;;;;;;;;;;;;;19.86;48.04;99292.34;2051893;28;1667;-68
2024/03/31 00:04:13;;;;;;;;;;;;;;;19.86;48.00;99298.09;2051650;28;2156;-68
2024/03/31 00:05:13;;;;;;;;;;;;;;;19.87;48.10;99295.94;2053245;28;1949;-68
2024/03/31 00:06:14;;;;;;;;;;;;;;;19.86;48.02;99297.38;2061649;28;1906;-68
2024/03/31 00:07:14;;;;;;;;;;;;;;;19.86;48.11;99297.38;2060230;28;1747;-68
2024/03/31 00:08:15;;;;;;;;;;;;;;;19.86;48.04;99297.38;2051179;28;1814;-68
2024/03/31 00:09:15;;;;;;;;;;;;;;;19.85;47.99;99296.63;2052498;28;2017;-68
2024/03/31 00:10:15;;;;;;;;;;;;;;;19.86;47.96;99294.50;2052282;28;2445;-68
2024/03/31 00:11:16;;;;;;;;;;;;;;;19.86;47.96;99297.38;2053127;28;2059;-68
2024/03/31 00:12:16;;;;;;;;;;;;;;;19.85;47.96;99296.63;2053324;28;1637;-68
2024/03/31 00:13:17;;;;;;;;;;;;;;;19.86;48.12;99291.63;2052817;28;1807;-68
2024/03/31 00:14:17;;;;;;;;;;;;;;;19.85;48.07;99295.88;2052121;28;2132;-68
2024/03/31 00:15:18;;;;;;;;;;;;;;;19.85;47.90;99295.88;2053292;28;1700;-69
2024/03/31 00:16:18;;;;;;;;;;;;;;;19.84;48.01;99294.44;2061028;28;2188;-68
2024/03/31 00:17:18;;;;;;;;;;;;;;;19.84;47.92;99294.44;2051016;28;1804;-68
2024/03/31 00:18:19;;;;;;;;;;;;;;;19.85;47.94;99295.88;2061687;28;1583;-68
2024/03/31 00:19:19;;;;;;;;;;;;;;;19.85;47.90;99288.00;2053299;28;1723;-68
2024/03/31 00:20:20;;;;;;;;;;;;;;;19.85;48.02;99298.75;2050192;28;2107;-68
2024/03/31 00:21:20;;;;;;;;;;;;;;;19.84;47.95;99295.16;2059384;28;1735;-68
2024/03/31 00:22:20;;;;;;;;;;;;;;;19.84;47.75;99288.69;2061516;28;2145;-68
2024/03/31 00:23:21;;;;;;;;;;;;;;;19.84;47.95;99291.56;2053718;28;2037;-68
2024/03/31 00:24:22;;;;;;;;;;;;;;;19.83;47.94;99292.97;2059099;28;2091;-68
2024/03/31 00:25:22;;;;;;;;;;;;;;;19.83;47.99;99293.69;2054031;28;1631;-68
2024/03/31 00:26:24;;;;;;;;;;;;;;;19.83;47.96;99299.44;2059666;28;1934;-68
2024/03/31 00:27:24;;;;;;;;;;;;;;;19.83;47.89;99304.47;2061003;28;1777;-68
2024/03/31 00:28:25;;;;;;;;;;;;;;;19.83;47.97;99304.47;2061191;28;1667;-68
2024/03/31 00:29:25;;;;;;;;;;;;;;;19.82;47.86;99303.00;2053149;28;1996;-68
2024/03/31 00:30:26;;;;;;;;;;;;;;;19.82;48.06;99297.25;2049899;28;6356;-68
2024/03/31 00:31:26;;;;;;;;;;;;;;;19.82;47.89;99298.00;2045919;28;1776;-68
2024/03/31 00:32:27;;;;;;;;;;;;;;;19.83;47.99;99290.09;2044665;28;2050;-68
2024/03/31 00:33:27;;;;;;;;;;;;;;;19.83;48.00;99290.09;2045535;28;1728;-68
2024/03/31 00:34:28;;;;;;;;;;;;;;;19.83;47.87;99290.09;2046415;28;2151;-68
2024/03/31 00:35:28;;;;;;;;;;;;;;;19.82;47.87;99286.50;2044650;28;2069;-68
2024/03/31 00:36:28;;;;;;;;;;;;;;;19.81;47.82;99293.66;2047644;28;2098;-68
2024/03/31 00:37:29;;;;;;;;;;;;;;;19.81;47.95;99278.56;2053652;28;2096;-68
2024/03/31 00:38:29;;;;;;;;;;;;;;;19.82;47.94;99280.03;2054567;28;1996;-68
2024/03/31 00:39:30;;;;;;;;;;;;;;;19.81;47.92;99290.03;2046910;28;1696;-68
2024/03/31 00:40:30;;;;;;;;;;;;;;;19.80;47.84;99282.84;2047186;28;1869;-68
2024/03/31 00:41:30;;;;;;;;;;;;;;;19.82;47.84;99285.78;2052390;28;1711;-69
2024/03/31 00:42:31;;;;;;;;;;;;;;;19.80;47.85;99283.56;2053517;28;1716;-68
2024/03/31 00:43:31;;;;;;;;;;;;;;;19.80;47.84;99288.59;2045813;28;1764;-68
2024/03/31 00:44:32;;;;;;;;;;;;;;;19.81;47.83;99290.03;2044252;28;2410;-68
2024/03/31 00:45:32;;;;;;;;;;;;;;;19.80;47.75;99288.59;2044416;28;2017;-68
2024/03/31 00:46:32;;;;;;;;;;;;;;;19.80;47.92;99289.31;2053180;28;1710;-68
2024/03/31 00:47:33;;;;;;;;;;;;;;;19.80;48.01;99285.72;2053609;28;2425;-68
2024/03/31 00:48:34;;;;;;;;;;;;;;;19.80;47.83;99277.84;2045500;28;1617;-68
2024/03/31 00:49:34;;;;;;;;;;;;;;;19.80;47.95;99283.56;2044725;28;1939;-68
2024/03/31 00:50:35;;;;;;;;;;;;;;;19.80;47.83;99277.13;2046067;28;2216;-68
2024/03/31 00:51:35;;;;;;;;;;;;;;;19.80;48.01;99282.84;2045692;28;1660;-68
2024/03/31 00:52:35;;;;;;;;;;;;;;;19.80;47.78;99283.56;2047269;28;1930;-68
2024/03/31 00:53:36;;;;;;;;;;;;;;;19.80;48.04;99279.97;2045354;28;1699;-68
2024/03/31 00:54:37;;;;;;;;;;;;;;;19.80;48.02;99282.84;2045888;28;2200;-68
2024/03/31 00:55:38;;;;;;;;;;;;;;;19.80;47.83;99277.13;2044728;28;1649;-68
2024/03/31 00:56:38;;;;;;;;;;;;;;;19.80;47.94;99277.13;2046392;28;1637;-68
2024/03/31 00:57:38;;;;;;;;;;;;;;;19.79;47.90;99269.88;2055678;28;1707;-68
2024/03/31 00:58:39;;;;;;;;;;;;;;;19.79;48.03;99282.13;2048123;28;1733;-68
2024/03/31 00:59:39;;;;;;;;;;;;;;;19.79;47.90;99275.63;2045661;28;1666;-68
2024/03/31 01:00:39;;;;;;;;;;;;;;;19.78;47.93;99277.06;2051209;28;6259;-68
2024/03/31 01:01:40;;;;;;;;;;;;;;;19.78;47.90;99285.69;2051429;28;2088;-69
2024/03/31 01:02:40;;;;;;;;;;;;;;;19.78;47.83;99279.94;2054320;28;2073;-68
2024/03/31 01:03:41;;;;;;;;;;;;;;;19.79;47.97;99281.38;2044858;28;2103;-68
2024/03/31 01:04:41;;;;;;;;;;;;;;;19.77;47.87;99272.72;2043299;28;2310;-68
2024/03/31 01:05:41;;;;;;;;;;;;;;;19.78;47.95;99274.19;2052933;28;2128;-68
2024/03/31 01:06:42;;;;;;;;;;;;;;;19.78;47.79;99282.81;2051433;28;2041;-68
2024/03/31 01:07:43;;;;;;;;;;;;;;;19.78;47.85;99277.06;2045634;28;1789;-68
2024/03/31 01:08:44;;;;;;;;;;;;;;;19.78;48.07;99268.44;2051487;28;1707;-68
2024/03/31 01:09:44;;;;;;;;;;;;;;;19.78;47.82;99274.19;2051478;28;2201;-68
2024/03/31 01:10:44;;;;;;;;;;;;;;;19.77;47.82;99273.47;2053729;28;1624;-68
2024/03/31 01:11:45;;;;;;;;;;;;;;;19.77;47.87;99278.47;2059523;28;2106;-68
2024/03/31 01:12:45;;;;;;;;;;;;;;;19.77;47.83;99278.47;2055843;28;1920;-69
2024/03/31 01:13:49;;;;;;;;;;;;;;;19.77;47.93;99278.47;2052762;28;1655;-68
2024/03/31 01:14:49;;;;;;;;;;;;;;;19.76;47.80;99277.00;2042751;28;2141;-68
2024/03/31 01:15:50;;;;;;;;;;;;;;;19.77;47.78;99281.31;2041032;28;1949;-68
2024/03/31 01:16:50;;;;;;;;;;;;;;;19.77;47.91;99278.47;2043877;28;2086;-68
2024/03/31 01:17:50;;;;;;;;;;;;;;;19.75;47.86;99282.03;2046151;28;1724;-68
2024/03/31 01:18:51;;;;;;;;;;;;;;;19.77;47.94;99284.94;2045574;28;1684;-68
2024/03/31 01:19:52;;;;;;;;;;;;;;;19.76;47.86;99272.00;2046565;28;2092;-68
2024/03/31 01:20:53;;;;;;;;;;;;;;;19.77;47.80;99266.97;2053565;28;1655;-69
2024/03/31 01:21:53;;;;;;;;;;;;;;;19.76;47.87;99271.25;2044955;28;2019;-68
2024/03/31 01:22:54;;;;;;;;;;;;;;;19.76;47.85;99268.38;2041632;28;1898;-68
2024/03/31 01:23:59;;;;;;;;;;;;;;;19.76;47.80;99259.78;2045763;28;1701;-68
2024/03/31 01:24:59;;;;;;;;;;;;;;;19.75;47.69;99253.31;2052400;28;1750;-68
2024/03/31 01:26:00;;;;;;;;;;;;;;;19.75;47.91;99252.59;2045833;28;1938;-68
2024/03/31 01:27:00;;;;;;;;;;;;;;;19.76;47.76;99254.03;2050076;28;1905;-68
2024/03/31 01:28:01;;;;;;;;;;;;;;;19.75;47.90;99246.84;2051037;28;1993;-68
2024/03/31 01:29:01;;;;;;;;;;;;;;;19.75;47.78;99252.59;2052080;28;2132;-68
2024/03/31 01:30:02;;;;;;;;;;;;;;;19.74;47.79;99248.97;2044206;28;6138;-68
2024/03/31 01:31:03;;;;;;;;;;;;;;;19.75;47.77;99246.84;2053155;28;1663;-68
2024/03/31 01:32:03;;;;;;;;;;;;;;;19.74;47.68;99240.34;2052556;28;1640;-69
2024/03/31 01:33:04;;;;;;;;;;;;;;;19.75;47.71;99252.59;2056979;28;1726;-68
2024/03/31 01:34:04;;;;;;;;;;;;;;;19.75;47.93;99246.84;2067235;28;1713;-68
2024/03/31 01:35:05;;;;;;;;;;;;;;;19.74;47.84;99243.22;2063994;28;2121;-68
2024/03/31 01:36:05;;;;;;;;;;;;;;;19.75;47.63;99246.84;2060008;28;1608;-68
2024/03/31 01:37:06;;;;;;;;;;;;;;;19.74;47.62;99251.13;2052903;28;2159;-68
2024/03/31 01:38:06;;;;;;;;;;;;;;;19.75;47.61;99244.69;2060530;28;2239;-68
2024/03/31 01:39:06;;;;;;;;;;;;;;;19.75;47.72;99246.84;2059108;28;2091;-68
2024/03/31 01:40:07;;;;;;;;;;;;;;;19.76;47.67;99242.53;2052642;28;2002;-68
2024/03/31 01:41:07;;;;;;;;;;;;;;;19.75;47.76;99246.84;2059944;28;1920;-68
2024/03/31 01:42:08;;;;;;;;;;;;;;;19.74;47.65;99248.97;2060213;28;1674;-68
2024/03/31 01:43:08;;;;;;;;;;;;;;;19.75;47.53;99246.84;2051779;28;2076;-68
2024/03/31 01:44:08;;;;;;;;;;;;;;;19.76;47.60;99254.03;2053402;28;1689;-68
2024/03/31 01:45:09;;;;;;;;;;;;;;;19.75;47.55;99250.44;2051312;28;1997;-68
2024/03/31 01:46:10;;;;;;;;;;;;;;;19.76;47.62;99248.28;2060763;28;1902;-68
2024/03/31 01:47:10;;;;;;;;;;;;;;;19.75;47.69;99247.56;2059410;28;2031;-68
2024/03/31 01:48:10;;;;;;;;;;;;;;;19.75;47.70;99253.31;2053623;28;2067;-68
2024/03/31 01:49:11;;;;;;;;;;;;;;;19.75;47.60;99246.84;2058971;28;2068;-68
2024/03/31 01:50:11;;;;;;;;;;;;;;;19.75;47.45;99252.59;2052795;28;2037;-68
2024/03/31 01:51:11;;;;;;;;;;;;;;;19.75;47.41;99252.59;2051670;28;2040;-68
2024/03/31 01:52:13;;;;;;;;;;;;;;;19.75;47.35;99252.59;2053243;28;2362;-68
2024/03/31 01:53:13;;;;;;;;;;;;;;;19.75;47.43;99252.59;2052660;28;1608;-68
2024/03/31 01:54:13;;;;;;;;;;;;;;;19.75;47.51;99249.72;2052129;28;1730;-69
2024/03/31 01:55:14;;;;;;;;;;;;;;;19.75;47.44;99252.59;2058874;28;2293;-68
2024/03/31 01:56:14;;;;;;;;;;;;;;;19.75;47.40;99252.59;2061056;28;1714;-68
2024/03/31 01:57:14;;;;;;;;;;;;;;;19.73;47.44;99256.13;2052159;28;1994;-68
2024/03/31 01:58:15;;;;;;;;;;;;;;;19.75;47.33;99246.84;2052437;28;2104;-68
2024/03/31 01:59:15;;;;;;;;;;;;;;;19.74;47.44;99257.56;2053529;28;1668;-68
2024/03/31 02:00:16;;;;;;;;;;;;;;;19.74;47.54;99256.84;2052096;28;6213;-68
2024/03/31 02:01:16;;;;;;;;;;;;;;;19.74;47.40;99256.84;2058617;28;1626;-68
2024/03/31 02:02:16;;;;;;;;;;;;;;;19.74;47.55;99254.72;2057729;28;2063;-68
2024/03/31 02:03:17;;;;;;;;;;;;;;;19.73;47.62;99255.41;2050433;28;1681;-68
2024/03/31 02:04:17;;;;;;;;;;;;;;;19.73;47.57;99249.66;2057152;28;2059;-68
2024/03/31 02:05:18;;;;;;;;;;;;;;;19.73;47.58;99255.41;2059916;28;1705;-68
2024/03/31 02:06:18;;;;;;;;;;;;;;;19.72;47.51;99248.91;2059797;28;1976;-68
2024/03/31 02:07:18;;;;;;;;;;;;;;;19.74;47.37;99253.97;2059951;28;1730;-69
2024/03/31 02:08:19;;;;;;;;;;;;;;;19.72;47.51;99248.91;2059190;28;2052;-68
2024/03/31 02:09:19;;;;;;;;;;;;;;;19.73;47.46;99243.91;2067030;28;2276;-68
2024/03/31 02:10:20;;;;;;;;;;;;;;;19.72;47.43;99248.19;2052047;28;2583;-68
2024/03/31 02:11:20;;;;;;;;;;;;;;;19.72;47.40;99248.91;2044104;28;1661;-68
2024/03/31 02:12:20;;;;;;;;;;;;;;;19.72;47.49;99248.91;2057727;28;2100;-68
2024/03/31 02:13:21;;;;;;;;;;;;;;;19.73;47.44;99250.38;2059603;28;1579;-68
2024/03/31 02:14:21;;;;;;;;;;;;;;;19.72;47.61;99251.06;2052599;28;1926;-68
2024/03/31 02:15:22;;;;;;;;;;;;;;;19.73;47.68;99255.41;2051691;28;2104;-68
2024/03/31 02:16:23;;;;;;;;;;;;;;;19.71;47.48;99252.50;2054552;28;1684;-68
2024/03/31 02:17:23;;;;;;;;;;;;;;;19.72;47.59;99260.41;2054027;28;1644;-68
2024/03/31 02:18:24;;;;;;;;;;;;;;;19.72;47.56;99260.41;2058473;28;2157;-67
2024/03/31 02:19:24;;;;;;;;;;;;;;;19.73;47.59;99258.28;2062209;28;2139;-68
2024/03/31 02:20:24;;;;;;;;;;;;;;;19.71;47.52;99255.34;2053180;28;2141;-68
2024/03/31 02:21:25;;;;;;;;;;;;;;;19.71;47.66;99255.34;2061485;28;1812;-68
2024/03/31 02:22:25;;;;;;;;;;;;;;;19.71;47.53;99246.75;2062196;28;1944;-68
2024/03/31 02:23:25;;;;;;;;;;;;;;;19.71;47.54;99252.50;2052129;28;2032;-68
2024/03/31 02:24:26;;;;;;;;;;;;;;;19.70;47.47;99251.00;2053170;28;1681;-68
2024/03/31 02:25:26;;;;;;;;;;;;;;;19.70;47.46;99251.00;2052847;28;2144;-68
2024/03/31 02:26:27;;;;;;;;;;;;;;;19.69;47.64;99249.56;2052777;28;1906;-68
2024/03/31 02:27:27;;;;;;;;;;;;;;;19.67;47.60;99250.94;2052165;28;1581;-68
2024/03/31 02:28:29;;;;;;;;;;;;;;;19.67;47.60;99253.81;2050677;28;2052;-68
2024/03/31 02:29:29;;;;;;;;;;;;;;;19.68;47.73;99254.56;2061148;28;2016;-68
2024/03/31 02:30:30;;;;;;;;;;;;;;;19.67;47.75;99253.06;2061571;28;6280;-68
2024/03/31 02:31:30;;;;;;;;;;;;;;;19.66;47.70;99252.34;2054206;28;1565;-68
2024/03/31 02:32:31;;;;;;;;;;;;;;;19.67;47.56;99253.81;2052277;28;2182;-68
2024/03/31 02:33:31;;;;;;;;;;;;;;;19.67;47.59;99261.69;2061019;28;2240;-68
2024/03/31 02:34:32;;;;;;;;;;;;;;;19.69;47.73;99249.56;2053261;28;2064;-67
2024/03/31 02:35:32;;;;;;;;;;;;;;;19.67;47.74;99253.81;2054023;28;1635;-68
2024/03/31 02:36:32;;;;;;;;;;;;;;;19.69;47.71;99255.31;2052655;28;2017;-68
2024/03/31 02:37:33;;;;;;;;;;;;;;;19.67;47.69;99253.81;2053093;28;2423;-68
2024/03/31 02:38:33;;;;;;;;;;;;;;;19.67;47.74;99248.06;2062454;28;1593;-68
2024/03/31 02:39:34;;;;;;;;;;;;;;;19.68;47.77;99248.81;2062006;28;1673;-68
2024/03/31 02:40:34;;;;;;;;;;;;;;;19.67;47.75;99250.94;2061641;28;1689;-68
2024/03/31 02:41:35;;;;;;;;;;;;;;;19.69;47.86;99255.31;2052660;28;1663;-68
2024/03/31 02:42:36;;;;;;;;;;;;;;;19.67;47.73;99250.94;2054498;28;1644;-68
2024/03/31 02:43:36;;;;;;;;;;;;;;;19.70;47.73;99253.88;2053145;28;2157;-68
2024/03/31 02:44:37;;;;;;;;;;;;;;;19.69;47.73;99256.03;2053057;28;2068;-69
2024/03/31 02:45:37;;;;;;;;;;;;;;;19.69;47.74;99249.56;2061595;28;1717;-68
2024/03/31 02:46:37;;;;;;;;;;;;;;;19.69;47.59;99255.31;2061827;28;1977;-68
2024/03/31 02:47:38;;;;;;;;;;;;;;;19.69;47.80;99267.50;2061568;28;2032;-68
2024/03/31 02:48:38;;;;;;;;;;;;;;;19.70;47.55;99262.50;2054232;28;2206;-68
2024/03/31 02:49:39;;;;;;;;;;;;;;;19.70;47.68;99259.63;2059774;28;2110;-68
2024/03/31 02:50:39;;;;;;;;;;;;;;;19.71;47.66;99263.97;2059705;28;1703;-68
2024/03/31 02:51:39;;;;;;;;;;;;;;;19.72;47.63;99259.69;2052535;28;2072;-68
2024/03/31 02:52:40;;;;;;;;;;;;;;;19.72;47.63;99256.81;2062177;28;1690;-68
2024/03/31 02:53:40;;;;;;;;;;;;;;;19.72;47.71;99256.81;2059886;28;2047;-68
2024/03/31 02:54:41;;;;;;;;;;;;;;;19.72;47.74;99259.69;2062060;28;1578;-68
2024/03/31 02:55:41;;;;;;;;;;;;;;;19.72;47.63;99259.69;2061293;28;1635;-68
2024/03/31 02:56:41;;;;;;;;;;;;;;;19.70;47.57;99257.50;2060552;28;2164;-68
2024/03/31 02:57:42;;;;;;;;;;;;;;;19.72;47.60;99253.94;2053333;28;2108;-68
2024/03/31 02:58:42;;;;;;;;;;;;;;;19.72;47.65;99256.81;2054119;28;1751;-68
2024/03/31 02:59:44;;;;;;;;;;;;;;;19.72;47.78;99251.78;2054108;28;1680;-68
2024/03/31 03:00:44;;;;;;;;;;;;;;;19.72;47.68;99254.66;2053244;28;6137;-68
2024/03/31 03:01:45;;;;;;;;;;;;;;;19.73;47.61;99255.41;2059178;28;1671;-69
2024/03/31 03:02:45;;;;;;;;;;;;;;;19.73;47.65;99255.41;2061301;28;2117;-68
2024/03/31 03:03:45;;;;;;;;;;;;;;;19.72;47.72;99263.28;2060292;28;2484;-69
2024/03/31 03:04:46;;;;;;;;;;;;;;;19.72;47.67;99259.69;2062243;28;2157;-68
2024/03/31 03:05:52;;;;;;;;;;;;;;;19.72;47.54;99259.69;2052983;28;1782;-69
2024/03/31 03:06:53;;;;;;;;;;;;;;;19.72;47.61;99265.41;2054171;28;2132;-68
2024/03/31 03:07:53;;;;;;;;;;;;;;;19.72;47.61;99262.56;2053320;28;2156;-68
2024/03/31 03:08:54;;;;;;;;;;;;;;;19.73;47.56;99255.41;2054132;28;1680;-68
2024/03/31 03:09:54;;;;;;;;;;;;;;;19.72;47.61;99254.66;2053437;28;2104;-68
2024/03/31 03:10:55;;;;;;;;;;;;;;;19.71;47.48;99249.63;2053859;28;1613;-68
2024/03/31 03:11:56;;;;;;;;;;;;;;;19.72;47.64;99248.19;2052692;28;2148;-68
2024/03/31 03:12:59;;;;;;;;;;;;;;;19.72;47.76;99254.66;2052683;28;1934;-68
2024/03/31 03:13:59;;;;;;;;;;;;;;;19.72;47.61;99253.94;2062285;28;1968;-68
2024/03/31 03:14:59;;;;;;;;;;;;;;;19.70;47.67;99256.75;2060985;28;1595;-68
2024/03/31 03:16:02;;;;;;;;;;;;;;;19.71;47.52;99269.72;2052606;28;2547;-68
2024/03/31 03:17:07;;;;;;;;;;;;;;;19.72;47.51;99271.88;2052106;28;1906;-68
2024/03/31 03:18:07;;;;;;;;;;;;;;;19.71;47.60;99275.47;2053590;28;1782;-68
2024/03/31 03:19:07;;;;;;;;;;;;;;;19.72;47.61;99282.66;2059611;28;2036;-68
2024/03/31 03:20:08;;;;;;;;;;;;;;;19.71;47.62;99284.06;2055255;28;2163;-68
2024/03/31 03:21:08;;;;;;;;;;;;;;;19.71;47.64;99281.19;2059210;28;1939;-68
2024/03/31 03:22:09;;;;;;;;;;;;;;;19.71;47.54;99284.06;2061447;28;1683;-67
2024/03/31 03:23:09;;;;;;;;;;;;;;;19.71;47.52;99275.47;2061755;28;1650;-68
2024/03/31 03:24:10;;;;;;;;;;;;;;;19.71;47.54;99275.47;2060658;28;1861;-68
2024/03/31 03:25:10;;;;;;;;;;;;;;;19.70;47.51;99274.75;2052928;28;2076;-68
2024/03/31 03:26:10;;;;;;;;;;;;;;;19.70;47.60;99277.59;2062326;28;2033;-68
2024/03/31 03:27:11;;;;;;;;;;;;;;;19.71;47.51;99275.47;2059823;28;2133;-68
2024/03/31 03:28:11;;;;;;;;;;;;;;;19.70;47.56;99273.97;2050415;28;1887;-68
2024/03/31 03:29:12;;;;;;;;;;;;;;;19.70;47.53;99276.84;2052630;28;2101;-69
2024/03/31 03:30:12;;;;;;;;;;;;;;;19.70;47.80;99274.75;2051672;28;7114;-68
2024/03/31 03:31:12;;;;;;;;;;;;;;;19.70;47.67;99273.97;2053628;28;2036;-68
2024/03/31 03:32:13;;;;;;;;;;;;;;;19.70;47.73;99276.84;2053160;28;1592;-69
2024/03/31 03:33:14;;;;;;;;;;;;;;;19.72;47.73;99283.38;2053697;28;1999;-68
2024/03/31 03:34:14;;;;;;;;;;;;;;;19.74;47.74;99286.28;2051874;28;1847;-68
2024/03/31 03:35:14;;;;;;;;;;;;;;;19.73;47.66;99289.88;2061071;28;1965;-68
2024/03/31 03:36:15;;;;;;;;;;;;;;;19.73;47.64;99279.09;2060494;28;1912;-68
2024/03/31 03:37:15;;;;;;;;;;;;;;;19.73;47.68;99284.84;2053786;28;2131;-68
2024/03/31 03:38:15;;;;;;;;;;;;;;;19.73;47.60;99281.97;2061100;28;1650;-68
2024/03/31 03:39:17;;;;;;;;;;;;;;;19.74;47.66;99288.44;2060458;28;1794;-68
2024/03/31 03:40:17;;;;;;;;;;;;;;;19.75;47.50;99279.16;2061160;28;1643;-68
2024/03/31 03:41:18;;;;;;;;;;;;;;;19.75;47.70;99275.56;2060834;28;1642;-68
2024/03/31 03:42:18;;;;;;;;;;;;;;;19.76;47.65;99277.72;2053697;28;1583;-67
2024/03/31 03:43:18;;;;;;;;;;;;;;;19.75;47.57;99281.31;2053815;28;1735;-68
2024/03/31 03:44:19;;;;;;;;;;;;;;;19.76;47.63;99283.47;2062099;28;1765;-68
2024/03/31 03:45:19;;;;;;;;;;;;;;;19.77;47.64;99282.06;2060924;28;1611;-68
2024/03/31 03:46:20;;;;;;;;;;;;;;;19.77;47.46;99284.94;2052296;28;1969;-68
2024/03/31 03:47:20;;;;;;;;;;;;;;;19.78;47.54;99282.81;2052352;28;2199;-68
2024/03/31 03:48:20;;;;;;;;;;;;;;;19.78;47.61;99279.94;2053377;28;1698;-68
2024/03/31 03:49:21;;;;;;;;;;;;;;;19.78;47.66;99285.69;2052797;28;2476;-68
2024/03/31 03:50:21;;;;;;;;;;;;;;;19.78;47.70;99285.69;2060915;28;2108;-68
2024/03/31 03:51:21;;;;;;;;;;;;;;;19.78;47.67;99285.69;2061617;28;1658;-68
2024/03/31 03:52:22;;;;;;;;;;;;;;;19.78;47.67;99291.41;2052858;28;2350;-68
2024/03/31 03:53:22;;;;;;;;;;;;;;;19.78;47.61;99294.28;2052699;28;1762;-68
2024/03/31 03:54:23;;;;;;;;;;;;;;;19.78;47.70;99285.69;2059365;28;1846;-69
2024/03/31 03:55:23;;;;;;;;;;;;;;;19.77;47.62;99281.31;2052014;28;1676;-68
2024/03/31 03:56:23;;;;;;;;;;;;;;;19.78;47.61;99285.69;2062159;28;1715;-68
2024/03/31 03:57:24;;;;;;;;;;;;;;;19.77;47.84;99282.06;2053062;28;2084;-68
2024/03/31 03:58:24;;;;;;;;;;;;;;;19.78;47.61;99279.94;2053405;28;2334;-68
2024/03/31 03:59:25;;;;;;;;;;;;;;;19.78;47.60;99279.94;2053272;28;1690;-68
2024/03/31 04:00:25;;;;;;;;;;;;;;;19.78;47.71;99279.94;2061402;28;6654;-68
2024/03/31 04:01:25;;;;;;;;;;;;;;;19.77;47.76;99279.22;2057373;28;2070;-68
2024/03/31 04:02:26;;;;;;;;;;;;;;;19.77;47.71;99272.72;2052709;28;1660;-68
2024/03/31 04:03:26;;;;;;;;;;;;;;;19.77;47.67;99278.47;2060544;28;1753;-68
2024/03/31 04:04:26;;;;;;;;;;;;;;;19.77;47.81;99272.72;2061446;28;2325;-68
2024/03/31 04:05:27;;;;;;;;;;;;;;;19.77;47.87;99284.94;2052072;28;2025;-68
2024/03/31 04:06:28;;;;;;;;;;;;;;;19.77;47.79;99278.47;2053741;28;1976;-68
2024/03/31 04:07:28;;;;;;;;;;;;;;;19.77;47.91;99281.31;2061795;28;1782;-68
2024/03/31 04:08:28;;;;;;;;;;;;;;;19.78;47.88;99277.06;2052775;28;1795;-68
2024/03/31 04:09:29;;;;;;;;;;;;;;;19.77;48.00;99273.47;2054937;28;2091;-68
2024/03/31 04:10:30;;;;;;;;;;;;;;;19.78;48.07;99279.94;2061685;28;1534;-68
2024/03/31 04:11:30;;;;;;;;;;;;;;;19.77;48.17;99276.34;2059074;28;2105;-68
2024/03/31 04:12:30;;;;;;;;;;;;;;;19.77;48.03;99281.31;2061282;28;1769;-68
2024/03/31 04:13:31;;;;;;;;;;;;;;;19.77;48.18;99278.47;2061068;28;1549;-68
2024/03/31 04:14:31;;;;;;;;;;;;;;;19.78;48.22;99274.19;2061955;28;1681;-68
2024/03/31 04:15:31;;;;;;;;;;;;;;;19.77;48.32;99278.47;2050493;28;2039;-68
2024/03/31 04:16:32;;;;;;;;;;;;;;;19.76;48.23;99277.00;2052336;28;1611;-68
2024/03/31 04:17:34;;;;;;;;;;;;;;;19.77;48.36;99272.72;2060989;28;1593;-68
2024/03/31 04:18:35;;;;;;;;;;;;;;;19.77;48.25;99272.72;2060979;28;2146;-68
2024/03/31 04:19:35;;;;;;;;;;;;;;;19.76;48.40;99271.25;2053795;28;1559;-68
2024/03/31 04:20:41;;;;;;;;;;;;;;;19.76;48.35;99271.25;2059333;28;2127;-68
2024/03/31 04:21:42;;;;;;;;;;;;;;;19.76;48.54;99277.00;2052745;28;1575;-68
2024/03/31 04:22:43;;;;;;;;;;;;;;;19.76;48.39;99274.13;2052714;28;1583;-68
2024/03/31 04:23:43;;;;;;;;;;;;;;;19.77;48.32;99272.72;2052475;28;2089;-68
2024/03/31 04:24:43;;;;;;;;;;;;;;;19.76;48.31;99271.25;2053498;28;1555;-68
2024/03/31 04:25:44;;;;;;;;;;;;;;;19.76;48.35;99268.38;2052220;28;1643;-67
2024/03/31 04:26:44;;;;;;;;;;;;;;;19.75;48.32;99267.66;2052726;28;1915;-68
2024/03/31 04:27:44;;;;;;;;;;;;;;;19.75;48.54;99269.81;2061050;28;1546;-68
2024/03/31 04:28:45;;;;;;;;;;;;;;;19.76;48.36;99271.25;2053228;28;1619;-68
2024/03/31 04:29:46;;;;;;;;;;;;;;;19.75;48.50;99276.28;2052230;28;1584;-68
2024/03/31 04:30:46;;;;;;;;;;;;;;;19.75;48.35;99267.66;2052114;28;6227;-68
2024/03/31 04:31:53;;;;;;;;;;;;;;;19.76;48.53;99279.88;2053519;28;1547;-68
2024/03/31 04:32:54;;;;;;;;;;;;;;;19.75;48.44;99275.56;2056268;28;1692;-68
2024/03/31 04:33:54;;;;;;;;;;;;;;;19.76;48.34;99282.75;2052500;28;1674;-63
2024/03/31 04:34:55;;;;;;;;;;;;;;;19.76;48.51;99285.63;2053419;28;1551;-76
2024/03/31 04:35:55;;;;;;;;;;;;;;;19.76;48.44;99288.50;2052966;28;2029;-76
2024/03/31 04:36:57;;;;;;;;;;;;;;;19.76;48.46;99288.50;2053891;28;1777;-67
2024/03/31 04:37:57;;;;;;;;;;;;;;;19.76;48.55;99288.50;2053489;28;1560;-65
2024/03/31 04:38:57;;;;;;;;;;;;;;;19.75;48.50;99298.53;2052885;28;1547;-65
2024/03/31 04:39:58;;;;;;;;;;;;;;;19.75;48.34;99310.03;2052882;28;1583;-65
2024/03/31 04:40:58;;;;;;;;;;;;;;;19.75;48.37;99315.75;2051297;28;2048;-65
2024/03/31 04:41:59;;;;;;;;;;;;;;;19.75;48.49;99315.75;2057650;28;1631;-65
2024/03/31 04:42:59;;;;;;;;;;;;;;;19.75;48.56;99315.75;2053688;28;1603;-65
2024/03/31 04:44:00;;;;;;;;;;;;;;;19.74;48.50;99328.66;2053173;28;2112;-65
2024/03/31 04:45:00;;;;;;;;;;;;;;;19.75;48.36;99324.38;2049546;28;2033;-65
2024/03/31 04:46:02;;;;;;;;;;;;;;;19.75;48.65;99318.63;2051405;28;1914;-65
2024/03/31 04:47:02;;;;;;;;;;;;;;;19.75;48.48;99318.63;2053098;28;1663;-65
2024/03/31 04:48:03;;;;;;;;;;;;;;;19.74;48.52;99308.56;2052790;28;1703;-65
2024/03/31 04:49:03;;;;;;;;;;;;;;;19.74;48.44;99308.56;2052177;28;1663;-65
2024/03/31 04:50:04;;;;;;;;;;;;;;;19.73;48.52;99307.09;2053227;28;1758;-65
2024/03/31 04:51:07;;;;;;;;;;;;;;;19.73;48.54;99301.34;2051344;28;1985;-65
2024/03/31 04:52:08;;;;;;;;;;;;;;;19.73;48.48;99309.97;2051811;28;1764;-65
2024/03/31 04:53:08;;;;;;;;;;;;;;;19.74;48.59;99317.16;2051911;28;1635;-65
2024/03/31 04:54:09;;;;;;;;;;;;;;;19.73;48.46;99321.47;2050230;28;1923;-65
2024/03/31 04:55:09;;;;;;;;;;;;;;;19.74;48.65;99317.16;2052415;28;2124;-65
2024/03/31 04:56:10;;;;;;;;;;;;;;;19.74;48.57;99314.28;2050576;28;1660;-66
2024/03/31 04:57:10;;;;;;;;;;;;;;;19.74;48.59;99320.03;2053288;28;1656;-65
2024/03/31 04:58:10;;;;;;;;;;;;;;;19.75;48.53;99321.50;2060400;28;1555;-65
2024/03/31 04:59:11;;;;;;;;;;;;;;;19.73;48.58;99312.84;2052888;28;2221;-66
2024/03/31 05:00:11;;;;;;;;;;;;;;;19.73;48.34;99318.59;2053512;28;6060;-65
2024/03/31 05:01:12;;;;;;;;;;;;;;;19.73;48.50;99318.59;2050461;28;1926;-65
2024/03/31 05:02:12;;;;;;;;;;;;;;;19.73;48.57;99324.31;2060531;28;1619;-65
2024/03/31 05:03:13;;;;;;;;;;;;;;;19.74;48.57;99325.78;2061019;28;1777;-67
2024/03/31 05:04:13;;;;;;;;;;;;;;;19.74;48.52;99322.91;2061194;28;1679;-65
2024/03/31 05:05:14;;;;;;;;;;;;;;;19.72;48.54;99312.09;2059081;28;2040;-65
2024/03/31 05:06:14;;;;;;;;;;;;;;;19.73;48.54;99318.59;2053396;28;2001;-65
2024/03/31 05:07:14;;;;;;;;;;;;;;;19.72;48.64;99314.97;2049351;28;2100;-65
2024/03/31 05:08:15;;;;;;;;;;;;;;;19.72;48.48;99312.09;2052700;28;1775;-66
2024/03/31 05:09:15;;;;;;;;;;;;;;;19.72;48.54;99311.38;2050083;28;2069;-65
2024/03/31 05:10:16;;;;;;;;;;;;;;;19.73;48.58;99304.22;2053094;28;1942;-65
2024/03/31 05:11:16;;;;;;;;;;;;;;;19.72;48.59;99305.63;2058779;28;2059;-65
2024/03/31 05:12:16;;;;;;;;;;;;;;;19.73;48.60;99307.09;2060076;28;1722;-65
2024/03/31 05:13:17;;;;;;;;;;;;;;;19.71;48.41;99304.19;2052140;28;1687;-65
2024/03/31 05:14:17;;;;;;;;;;;;;;;19.71;48.58;99309.91;2052851;28;1681;-65
2024/03/31 05:15:18;;;;;;;;;;;;;;;19.70;48.56;99308.44;2054571;28;1696;-66
2024/03/31 05:16:18;;;;;;;;;;;;;;;19.71;48.51;99304.19;2060445;28;1646;-66
2024/03/31 05:17:18;;;;;;;;;;;;;;;19.71;48.48;99298.44;2059578;28;1587;-65
2024/03/31 05:18:19;;;;;;;;;;;;;;;19.70;48.43;99308.44;2053683;28;2020;-65
2024/03/31 05:19:19;;;;;;;;;;;;;;;19.70;48.46;99297.72;2052627;28;2919;-65